Sprucedale, Canada
Current Conditions -  °F | °C
As of 1:26 PM on Thursday 29 Jan 2015 (Local Time) from CYQA Reporting Station
Light Snow Light Snow  
Wind Chill: 15°   Ceiling: 1300
Heat Index: 23°   Visibility: 1.2mi
Dew Point: 21°   Wind: 7mph
Humidity: 93%   Direction: 120°ESE
Pressure: 29.74"   Gusts: NA
Location:  45.48°N, 79.47°W
Report Text: CYQA 291826Z AUTO 12006KT 1 1/4SM -SN OVC013 M05/M06 A2974 RMK SLP089
Loading
Personal Weather Stations






























Interactive Weather Map New forecast layout! Learn more

10-Day Weather Forecast

Advertisements
Track Severe Weather on mobile